createdAt,value
2018-07-07T10:34:27.929Z,46.00
2018-07-07T10:36:57.140Z,46.20
2018-07-07T10:39:26.643Z,46.70
2018-07-07T10:41:55.901Z,45.40
2018-07-07T10:44:25.025Z,46.60
2018-07-07T10:46:54.106Z,46.10
2018-07-07T10:49:23.058Z,46.20
2018-07-07T10:51:52.154Z,44.70
2018-07-07T10:54:20.935Z,44.90
2018-07-07T10:56:50.076Z,44.30
2018-07-07T10:59:19.202Z,44.30
2018-07-07T11:01:48.049Z,43.40
2018-07-07T11:04:17.032Z,41.90
2018-07-07T11:06:46.706Z,41.60
2018-07-07T11:09:15.550Z,41.00
2018-07-07T11:11:44.707Z,40.90
2018-07-07T11:14:14.623Z,40.80
2018-07-07T11:16:43.871Z,40.50
2018-07-07T11:19:12.866Z,41.90
2018-07-07T11:21:42.465Z,43.20
2018-07-07T11:24:11.706Z,42.70
2018-07-07T11:26:41.354Z,41.90
2018-07-07T11:29:10.258Z,41.20
2018-07-07T11:31:39.552Z,42.00
2018-07-07T11:34:08.345Z,41.50
2018-07-07T11:36:37.583Z,41.60
2018-07-07T11:39:06.981Z,40.00
2018-07-07T11:41:35.832Z,40.20
2018-07-07T11:44:05.471Z,40.60
2018-07-07T11:46:34.430Z,41.40
2018-07-07T11:49:03.219Z,42.30
2018-07-07T11:54:01.044Z,41.10
2018-07-07T11:56:30.499Z,40.70
2018-07-07T11:58:59.393Z,41.30
2018-07-07T12:01:28.354Z,40.10
2018-07-07T12:03:57.751Z,40.50
2018-07-07T12:06:26.891Z,41.70
2018-07-07T12:08:55.669Z,41.40
2018-07-07T12:11:24.509Z,40.20
2018-07-07T12:13:54.079Z,40.40
2018-07-07T12:16:22.939Z,40.60
2018-07-07T12:18:52.043Z,40.30
2018-07-07T12:21:21.550Z,39.50
2018-07-07T12:23:50.924Z,40.20
2018-07-07T12:26:20.724Z,41.50
2018-07-07T12:28:49.781Z,40.70
2018-07-07T12:31:18.790Z,41.80
2018-07-07T12:33:48.433Z,42.00
2018-07-07T12:36:17.617Z,42.00
2018-07-07T12:38:46.767Z,41.80
2018-07-07T12:41:15.991Z,40.70
2018-07-07T12:43:45.356Z,41.30
2018-07-07T12:46:14.425Z,41.60
2018-07-07T12:48:43.812Z,41.80
2018-07-07T12:51:13.013Z,41.60
2018-07-07T12:53:42.287Z,42.20
2018-07-07T12:56:11.066Z,41.60
2018-07-07T12:58:39.837Z,41.90
2018-07-07T13:01:09.006Z,41.90
2018-07-07T13:03:38.264Z,41.90
2018-07-07T13:06:07.412Z,41.50
2018-07-07T13:08:36.175Z,41.10
2018-07-07T13:11:04.968Z,40.50
2018-07-07T13:13:34.077Z,40.20
2018-07-07T13:16:03.151Z,41.40
2018-07-07T13:18:31.959Z,41.50
2018-07-07T13:21:01.204Z,41.20
2018-07-07T13:23:30.522Z,40.20
2018-07-07T13:25:59.683Z,39.70
2018-07-07T13:28:29.042Z,40.50
2018-07-07T13:30:58.230Z,40.40
2018-07-07T13:33:27.597Z,40.50
2018-07-07T13:35:56.946Z,40.40
2018-07-07T13:38:26.031Z,40.70
2018-07-07T13:40:54.935Z,39.40
2018-07-07T13:43:24.007Z,41.30
2018-07-07T13:45:53.447Z,41.40
2018-07-07T13:48:22.691Z,40.70
2018-07-07T13:50:52.204Z,41.00
2018-07-07T13:53:21.166Z,40.50
2018-07-07T13:55:50.598Z,40.50
2018-07-07T13:58:19.423Z,39.80
2018-07-07T14:00:48.537Z,39.50
2018-07-07T14:03:17.382Z,39.70
2018-07-07T14:05:46.122Z,39.70
2018-07-07T14:08:15.284Z,40.00
2018-07-07T14:13:13.541Z,40.10
2018-07-07T14:15:42.390Z,41.60
2018-07-07T14:18:11.147Z,41.10
2018-07-07T14:20:39.940Z,41.20
2018-07-07T14:23:09.122Z,40.90
2018-07-07T14:25:38.393Z,40.90
2018-07-07T14:28:07.329Z,41.30
2018-07-07T14:30:36.682Z,41.30
2018-07-07T14:33:06.051Z,41.80
2018-07-07T14:35:35.364Z,42.30
2018-07-07T14:38:04.360Z,41.50
2018-07-07T14:40:34.109Z,42.10
2018-07-07T14:43:03.029Z,42.40
2018-07-07T14:45:33.070Z,42.10
2018-07-07T14:48:03.755Z,42.50
2018-07-07T14:50:33.602Z,42.60
2018-07-07T14:53:03.219Z,42.40
2018-07-07T14:55:32.053Z,42.60
2018-07-07T14:58:01.500Z,42.80
2018-07-07T15:00:31.246Z,42.60
2018-07-07T15:03:00.415Z,42.70
2018-07-07T15:05:29.918Z,43.10
2018-07-07T15:07:59.110Z,43.80
2018-07-07T15:10:27.875Z,44.00
2018-07-07T15:12:57.072Z,43.40
2018-07-07T15:15:26.607Z,43.10
2018-07-07T15:17:55.467Z,42.70
2018-07-07T15:20:24.668Z,42.80
2018-07-07T15:22:54.345Z,43.80
2018-07-07T15:25:23.480Z,43.20
2018-07-07T15:27:52.498Z,42.30
2018-07-07T15:30:21.598Z,43.90
2018-07-07T15:32:51.262Z,43.90
2018-07-07T15:35:20.456Z,43.40
2018-07-07T15:37:49.792Z,43.00
2018-07-07T15:40:18.667Z,43.10
2018-07-07T15:42:48.969Z,42.70
2018-07-07T15:45:17.840Z,44.70
2018-07-07T15:47:47.311Z,44.30
2018-07-07T15:50:17.061Z,44.00
2018-07-07T15:52:46.178Z,43.90
2018-07-07T15:55:15.674Z,44.30
2018-07-07T15:57:45.381Z,43.70
2018-07-07T16:00:14.155Z,45.40
2018-07-07T16:02:43.258Z,43.90
2018-07-07T16:05:12.539Z,45.10
2018-07-07T16:07:42.005Z,45.50
2018-07-07T16:10:11.475Z,44.60
2018-07-07T16:12:40.540Z,44.80
2018-07-07T16:15:10.002Z,45.30
2018-07-07T16:17:39.125Z,44.80
2018-07-07T16:20:08.260Z,45.30
2018-07-07T16:22:37.010Z,45.70
2018-07-07T16:25:05.834Z,46.00
2018-07-07T16:30:03.598Z,46.10
2018-07-07T16:32:33.405Z,46.90
2018-07-07T16:35:02.688Z,46.60
2018-07-07T16:37:32.163Z,47.80
2018-07-07T16:40:01.432Z,46.10
2018-07-07T16:42:30.729Z,46.80
2018-07-07T16:45:00.437Z,46.70
2018-07-07T16:47:29.641Z,46.30
2018-07-07T16:49:58.444Z,45.90
2018-07-07T16:52:27.263Z,46.80
2018-07-07T16:54:56.051Z,47.00
2018-07-07T16:57:25.127Z,46.60
2018-07-07T16:59:54.392Z,47.00
2018-07-07T17:02:23.142Z,47.60
2018-07-07T17:04:52.095Z,47.80
2018-07-07T17:07:21.060Z,47.80
2018-07-07T17:09:49.807Z,48.70
2018-07-07T17:12:18.555Z,48.40
2018-07-07T17:14:47.705Z,48.20
2018-07-07T17:17:16.537Z,48.30
2018-07-07T17:19:45.497Z,49.10
2018-07-07T17:22:14.620Z,49.20
2018-07-07T17:24:44.015Z,48.30
2018-07-07T17:27:13.215Z,48.70
2018-07-07T17:29:41.985Z,48.60
2018-07-07T17:32:10.877Z,49.10
2018-07-07T17:34:39.688Z,48.40
2018-07-07T17:37:08.881Z,48.80
2018-07-07T17:39:37.651Z,48.60
2018-07-07T17:42:06.572Z,49.20
2018-07-07T17:44:35.391Z,48.70
2018-07-07T17:47:04.299Z,48.80
2018-07-07T17:49:33.201Z,49.20
2018-07-07T17:52:02.239Z,49.70
2018-07-07T17:54:31.296Z,49.90
2018-07-07T17:57:00.323Z,49.80
2018-07-07T17:59:29.242Z,50.00
2018-07-07T18:01:58.196Z,50.20
2018-07-07T18:04:27.538Z,51.00
2018-07-07T18:06:56.365Z,52.00
2018-07-07T18:09:26.189Z,51.20
2018-07-07T18:11:55.233Z,51.20
2018-07-07T18:14:24.707Z,51.50
2018-07-07T18:16:53.845Z,51.40
2018-07-07T18:19:22.673Z,51.70
2018-07-07T18:21:51.851Z,51.40
2018-07-07T18:24:20.945Z,51.50
2018-07-07T18:26:50.064Z,51.60
2018-07-07T18:29:19.542Z,51.90
2018-07-07T18:31:48.721Z,51.70
2018-07-07T18:34:17.960Z,51.70
2018-07-07T18:36:46.871Z,51.80
2018-07-07T18:39:16.233Z,52.20
2018-07-07T18:41:45.731Z,52.60
2018-07-07T18:44:15.189Z,52.40
2018-07-07T18:46:44.532Z,53.00
2018-07-07T18:49:13.768Z,53.50
2018-07-07T18:51:42.878Z,53.80
2018-07-07T18:54:11.732Z,53.20
2018-07-07T18:56:40.881Z,53.60
2018-07-07T18:59:10.556Z,53.70
2018-07-07T19:01:39.478Z,54.10
2018-07-07T19:04:08.311Z,53.90
2018-07-07T19:06:37.157Z,54.50
2018-07-07T19:09:07.376Z,54.00
2018-07-07T19:11:36.303Z,54.60
2018-07-07T19:14:05.338Z,54.30
2018-07-07T19:16:34.329Z,54.70
2018-07-07T19:19:03.382Z,54.60
2018-07-07T19:21:37.929Z,55.40
2018-07-07T19:24:13.488Z,55.50
2018-07-07T19:26:54.293Z,55.30
2018-07-07T19:29:25.194Z,55.70
2018-07-07T19:32:00.143Z,56.10
2018-07-07T19:34:34.555Z,56.00
2018-07-07T19:37:09.255Z,55.60
2018-07-07T19:39:38.079Z,55.80
2018-07-07T19:42:07.513Z,56.20
2018-07-07T19:44:36.729Z,56.60
2018-07-07T19:47:05.721Z,56.40
2018-07-07T19:49:35.259Z,56.90
2018-07-07T19:52:04.455Z,57.00
2018-07-07T19:54:33.416Z,57.20
2018-07-07T19:57:03.012Z,56.90
2018-07-07T19:59:32.082Z,56.70
2018-07-07T20:02:05.983Z,57.30
2018-07-07T20:04:35.562Z,57.50
2018-07-07T20:07:04.554Z,57.00
2018-07-07T20:09:33.955Z,57.40
2018-07-07T20:12:03.208Z,57.30
2018-07-07T20:14:32.134Z,58.00
2018-07-07T20:17:10.830Z,57.60
2018-07-07T20:20:58.268Z,58.40
2018-07-07T20:23:29.889Z,58.80
2018-07-07T20:26:01.012Z,58.70
2018-07-07T20:28:35.866Z,59.00
2018-07-07T20:31:04.773Z,59.20
2018-07-07T20:33:33.631Z,59.20
2018-07-07T20:36:03.195Z,59.50
2018-07-07T20:38:32.367Z,59.10
2018-07-07T20:41:01.371Z,59.70
2018-07-07T20:43:30.685Z,59.90
2018-07-07T20:45:59.964Z,59.60
2018-07-07T20:48:29.601Z,60.10
2018-07-07T20:50:58.557Z,60.00
2018-07-07T20:53:27.851Z,60.30
2018-07-07T20:55:57.146Z,60.00
2018-07-07T20:58:25.948Z,60.20
2018-07-07T21:00:54.742Z,60.90
2018-07-07T21:03:23.551Z,60.50
2018-07-07T21:05:52.715Z,60.40
2018-07-07T21:08:22.117Z,60.80
2018-07-07T21:10:50.885Z,61.80
2018-07-07T21:13:19.989Z,62.10
2018-07-07T21:15:49.155Z,62.60
2018-07-07T21:18:18.231Z,62.30
2018-07-07T21:20:47.691Z,62.10
2018-07-07T21:23:16.803Z,61.90
2018-07-07T21:25:45.935Z,62.40
2018-07-07T21:28:14.712Z,62.40
2018-07-07T21:30:43.822Z,62.70
2018-07-07T21:33:13.065Z,63.30
2018-07-07T21:35:42.256Z,63.70
2018-07-07T21:38:11.545Z,63.40
2018-07-07T21:40:40.560Z,63.30
2018-07-07T21:43:09.740Z,63.00
2018-07-07T21:45:38.966Z,63.50
2018-07-07T21:48:08.137Z,63.60
2018-07-07T21:50:37.364Z,63.90
2018-07-07T21:53:06.674Z,63.80
2018-07-07T21:55:35.822Z,64.00
2018-07-07T21:58:10.345Z,64.20
2018-07-07T22:00:56.557Z,64.30
2018-07-07T22:03:31.085Z,63.70
2018-07-07T22:06:05.427Z,63.70
2018-07-07T22:08:35.369Z,64.60
2018-07-07T22:11:04.543Z,64.90
2018-07-07T22:13:33.803Z,64.20
2018-07-07T22:16:02.887Z,64.30
2018-07-07T22:18:31.757Z,65.20
2018-07-07T22:21:12.131Z,65.70
2018-07-07T22:23:41.562Z,66.30
2018-07-07T22:26:10.977Z,67.40
2018-07-07T22:28:40.457Z,66.10
2018-07-07T22:31:09.257Z,66.50
2018-07-07T22:33:38.402Z,66.10
2018-07-07T22:36:12.465Z,66.30
2018-07-07T22:38:47.543Z,66.60
2018-07-07T22:41:17.271Z,66.70
2018-07-07T22:43:46.397Z,66.80
2018-07-07T22:46:15.381Z,66.50
2018-07-07T22:48:44.393Z,66.60
2018-07-07T22:51:13.576Z,67.10
2018-07-07T22:53:43.087Z,66.80
2018-07-07T22:56:12.223Z,66.60
2018-07-07T22:58:41.355Z,66.70
2018-07-07T23:01:10.496Z,66.70
2018-07-07T23:03:39.666Z,67.00
2018-07-07T23:06:08.745Z,66.10
2018-07-07T23:08:38.190Z,66.60
2018-07-07T23:11:07.335Z,66.40
2018-07-07T23:13:36.537Z,66.50
2018-07-07T23:16:06.353Z,67.10
2018-07-07T23:18:35.127Z,67.20
2018-07-07T23:21:04.757Z,66.80
2018-07-07T23:23:33.806Z,66.40
2018-07-07T23:26:03.090Z,67.00
2018-07-07T23:28:31.939Z,67.50
2018-07-07T23:31:01.613Z,67.20
2018-07-07T23:33:30.335Z,67.30
2018-07-07T23:35:59.224Z,68.30
2018-07-07T23:38:28.643Z,68.30
2018-07-07T23:40:57.732Z,68.80
2018-07-07T23:43:26.531Z,68.40
2018-07-07T23:45:55.261Z,68.60
2018-07-07T23:48:24.055Z,68.50
2018-07-07T23:50:52.904Z,68.50
2018-07-07T23:53:22.015Z,68.80
2018-07-07T23:55:50.902Z,69.00
2018-07-07T23:58:20.254Z,68.60
